sensor_id;sensor_type;location;lat;lon;timestamp;temperature;humidity
16732;DHT22;8484;50.904;9.192;2023-06-14T00:01:24;17.10;78.10
16732;DHT22;8484;50.904;9.192;2023-06-14T00:03:51;17.20;78.70
16732;DHT22;8484;50.904;9.192;2023-06-14T00:06:19;17.20;78.30
16732;DHT22;8484;50.904;9.192;2023-06-14T00:08:46;17.00;79.30
16732;DHT22;8484;50.904;9.192;2023-06-14T00:11:13;17.00;79.40
16732;DHT22;8484;50.904;9.192;2023-06-14T00:13:40;16.90;80.60
16732;DHT22;8484;50.904;9.192;2023-06-14T00:16:10;16.80;79.40
16732;DHT22;8484;50.904;9.192;2023-06-14T00:18:37;16.60;81.00
16732;DHT22;8484;50.904;9.192;2023-06-14T00:21:04;16.60;80.10
16732;DHT22;8484;50.904;9.192;2023-06-14T00:23:31;16.60;80.50
16732;DHT22;8484;50.904;9.192;2023-06-14T00:25:58;16.60;80.30
16732;DHT22;8484;50.904;9.192;2023-06-14T00:28:25;16.60;80.40
16732;DHT22;8484;50.904;9.192;2023-06-14T00:30:52;16.50;80.10
16732;DHT22;8484;50.904;9.192;2023-06-14T00:33:20;16.50;81.10
16732;DHT22;8484;50.904;9.192;2023-06-14T00:35:47;16.50;81.00
16732;DHT22;8484;50.904;9.192;2023-06-14T00:38:17;16.60;80.90
16732;DHT22;8484;50.904;9.192;2023-06-14T00:40:44;16.50;80.80
16732;DHT22;8484;50.904;9.192;2023-06-14T00:43:11;16.30;81.60
16732;DHT22;8484;50.904;9.192;2023-06-14T00:45:38;16.40;82.00
16732;DHT22;8484;50.904;9.192;2023-06-14T00:48:05;16.40;81.40
16732;DHT22;8484;50.904;9.192;2023-06-14T00:50:35;16.40;81.60
16732;DHT22;8484;50.904;9.192;2023-06-14T00:53:04;16.40;82.10
16732;DHT22;8484;50.904;9.192;2023-06-14T00:55:31;16.40;82.00
16732;DHT22;8484;50.904;9.192;2023-06-14T00:57:58;16.40;82.10
16732;DHT22;8484;50.904;9.192;2023-06-14T01:00:25;16.40;82.00
16732;DHT22;8484;50.904;9.192;2023-06-14T01:02:54;16.30;82.40
16732;DHT22;8484;50.904;9.192;2023-06-14T01:05:23;16.30;82.90
16732;DHT22;8484;50.904;9.192;2023-06-14T01:08:00;16.20;82.80
16732;DHT22;8484;50.904;9.192;2023-06-14T01:10:37;16.10;83.40
16732;DHT22;8484;50.904;9.192;2023-06-14T01:13:10;16.00;83.70
16732;DHT22;8484;50.904;9.192;2023-06-14T01:15:41;16.10;83.40
16732;DHT22;8484;50.904;9.192;2023-06-14T01:18:09;15.90;84.20
16732;DHT22;8484;50.904;9.192;2023-06-14T01:20:44;15.90;84.70
16732;DHT22;8484;50.904;9.192;2023-06-14T01:23:14;15.90;84.30
16732;DHT22;8484;50.904;9.192;2023-06-14T01:25:41;15.90;84.80
16732;DHT22;8484;50.904;9.192;2023-06-14T01:28:10;15.90;84.90
16732;DHT22;8484;50.904;9.192;2023-06-14T01:30:39;15.80;85.00
16732;DHT22;8484;50.904;9.192;2023-06-14T01:33:11;15.90;85.10
16732;DHT22;8484;50.904;9.192;2023-06-14T01:35:38;15.80;85.40
16732;DHT22;8484;50.904;9.192;2023-06-14T01:38:06;15.70;85.60
16732;DHT22;8484;50.904;9.192;2023-06-14T01:40:35;15.70;85.90
16732;DHT22;8484;50.904;9.192;2023-06-14T01:43:03;15.60;86.20
16732;DHT22;8484;50.904;9.192;2023-06-14T01:45:31;15.70;85.90
16732;DHT22;8484;50.904;9.192;2023-06-14T01:48:00;15.70;85.50
16732;DHT22;8484;50.904;9.192;2023-06-14T01:50:28;15.60;86.20
16732;DHT22;8484;50.904;9.192;2023-06-14T01:52:57;15.60;86.60
16732;DHT22;8484;50.904;9.192;2023-06-14T01:55:24;15.50;87.00
16732;DHT22;8484;50.904;9.192;2023-06-14T01:57:54;15.50;87.20
16732;DHT22;8484;50.904;9.192;2023-06-14T02:00:21;15.40;87.70
16732;DHT22;8484;50.904;9.192;2023-06-14T02:02:48;15.40;88.10
16732;DHT22;8484;50.904;9.192;2023-06-14T02:05:16;15.40;88.00
16732;DHT22;8484;50.904;9.192;2023-06-14T02:07:44;15.30;88.40
16732;DHT22;8484;50.904;9.192;2023-06-14T02:10:12;15.20;88.50
16732;DHT22;8484;50.904;9.192;2023-06-14T02:12:39;15.20;88.60
16732;DHT22;8484;50.904;9.192;2023-06-14T02:15:09;15.20;88.40
16732;DHT22;8484;50.904;9.192;2023-06-14T02:17:42;15.20;89.20
16732;DHT22;8484;50.904;9.192;2023-06-14T02:20:10;14.80;90.00
16732;DHT22;8484;50.904;9.192;2023-06-14T02:22:37;14.80;90.30
16732;DHT22;8484;50.904;9.192;2023-06-14T02:25:04;14.70;90.70
16732;DHT22;8484;50.904;9.192;2023-06-14T02:27:32;14.60;90.90
16732;DHT22;8484;50.904;9.192;2023-06-14T02:29:59;14.70;91.10
16732;DHT22;8484;50.904;9.192;2023-06-14T02:32:27;14.60;91.20
16732;DHT22;8484;50.904;9.192;2023-06-14T02:34:54;14.60;91.30
16732;DHT22;8484;50.904;9.192;2023-06-14T02:37:21;14.50;91.50
16732;DHT22;8484;50.904;9.192;2023-06-14T02:39:48;14.30;91.90
16732;DHT22;8484;50.904;9.192;2023-06-14T02:42:15;14.30;92.10
16732;DHT22;8484;50.904;9.192;2023-06-14T02:44:42;14.30;92.20
16732;DHT22;8484;50.904;9.192;2023-06-14T02:47:08;14.20;92.50
16732;DHT22;8484;50.904;9.192;2023-06-14T02:49:37;14.20;92.80
16732;DHT22;8484;50.904;9.192;2023-06-14T02:52:04;14.60;92.20
16732;DHT22;8484;50.904;9.192;2023-06-14T02:54:31;14.50;92.30
16732;DHT22;8484;50.904;9.192;2023-06-14T02:56:58;14.40;92.60
16732;DHT22;8484;50.904;9.192;2023-06-14T02:59:25;14.40;92.70
16732;DHT22;8484;50.904;9.192;2023-06-14T03:01:52;14.40;92.40
16732;DHT22;8484;50.904;9.192;2023-06-14T03:04:19;14.40;92.70
16732;DHT22;8484;50.904;9.192;2023-06-14T03:06:47;14.30;93.00
16732;DHT22;8484;50.904;9.192;2023-06-14T03:09:15;14.30;92.90
16732;DHT22;8484;50.904;9.192;2023-06-14T03:11:42;14.30;92.90
16732;DHT22;8484;50.904;9.192;2023-06-14T03:14:09;14.50;92.70
16732;DHT22;8484;50.904;9.192;2023-06-14T03:16:36;14.30;93.10
16732;DHT22;8484;50.904;9.192;2023-06-14T03:19:03;14.30;93.10
16732;DHT22;8484;50.904;9.192;2023-06-14T03:21:30;14.30;93.10
16732;DHT22;8484;50.904;9.192;2023-06-14T03:24:00;14.30;93.20
16732;DHT22;8484;50.904;9.192;2023-06-14T03:26:28;14.30;93.10
16732;DHT22;8484;50.904;9.192;2023-06-14T03:28:56;14.50;93.10
16732;DHT22;8484;50.904;9.192;2023-06-14T03:31:22;14.40;93.10
16732;DHT22;8484;50.904;9.192;2023-06-14T03:33:50;14.50;93.00
16732;DHT22;8484;50.904;9.192;2023-06-14T03:36:17;14.40;93.20
16732;DHT22;8484;50.904;9.192;2023-06-14T03:38:47;14.40;93.10
16732;DHT22;8484;50.904;9.192;2023-06-14T03:41:16;14.30;93.40
16732;DHT22;8484;50.904;9.192;2023-06-14T03:43:42;14.30;93.50
16732;DHT22;8484;50.904;9.192;2023-06-14T03:46:09;14.40;93.30
16732;DHT22;8484;50.904;9.192;2023-06-14T03:48:36;14.50;93.40
16732;DHT22;8484;50.904;9.192;2023-06-14T03:51:04;14.60;93.20
16732;DHT22;8484;50.904;9.192;2023-06-14T03:53:31;14.40;93.60
16732;DHT22;8484;50.904;9.192;2023-06-14T03:55:58;14.60;93.50
16732;DHT22;8484;50.904;9.192;2023-06-14T03:58:27;14.60;93.90
16732;DHT22;8484;50.904;9.192;2023-06-14T04:00:54;14.70;93.70
16732;DHT22;8484;50.904;9.192;2023-06-14T04:03:21;14.70;93.20
16732;DHT22;8484;50.904;9.192;2023-06-14T04:05:55;14.70;93.60
16732;DHT22;8484;50.904;9.192;2023-06-14T04:08:25;14.70;93.50
16732;DHT22;8484;50.904;9.192;2023-06-14T04:10:52;14.90;93.70
16732;DHT22;8484;50.904;9.192;2023-06-14T04:13:18;15.10;93.00
16732;DHT22;8484;50.904;9.192;2023-06-14T04:15:47;15.00;92.90
16732;DHT22;8484;50.904;9.192;2023-06-14T04:18:14;15.10;93.30
16732;DHT22;8484;50.904;9.192;2023-06-14T04:20:41;15.10;93.00
16732;DHT22;8484;50.904;9.192;2023-06-14T04:23:17;15.20;93.00
16732;DHT22;8484;50.904;9.192;2023-06-14T04:25:44;15.30;92.90
16732;DHT22;8484;50.904;9.192;2023-06-14T04:28:13;15.30;92.70
16732;DHT22;8484;50.904;9.192;2023-06-14T04:30:41;15.40;92.30
16732;DHT22;8484;50.904;9.192;2023-06-14T04:33:09;15.40;92.50
16732;DHT22;8484;50.904;9.192;2023-06-14T04:35:36;15.40;92.50
16732;DHT22;8484;50.904;9.192;2023-06-14T04:38:04;15.50;92.70
16732;DHT22;8484;50.904;9.192;2023-06-14T04:40:34;15.50;92.80
16732;DHT22;8484;50.904;9.192;2023-06-14T04:43:08;15.50;92.70
16732;DHT22;8484;50.904;9.192;2023-06-14T04:45:38;15.50;92.60
16732;DHT22;8484;50.904;9.192;2023-06-14T04:48:05;15.60;92.70
16732;DHT22;8484;50.904;9.192;2023-06-14T04:50:34;15.70;92.90
16732;DHT22;8484;50.904;9.192;2023-06-14T04:53:01;15.70;92.80
16732;DHT22;8484;50.904;9.192;2023-06-14T04:55:28;16.00;92.30
16732;DHT22;8484;50.904;9.192;2023-06-14T04:57:56;15.90;92.40
16732;DHT22;8484;50.904;9.192;2023-06-14T05:00:23;16.00;93.00
16732;DHT22;8484;50.904;9.192;2023-06-14T05:02:50;16.10;92.70
16732;DHT22;8484;50.904;9.192;2023-06-14T05:05:18;16.20;92.40
16732;DHT22;8484;50.904;9.192;2023-06-14T05:07:47;16.30;92.80
16732;DHT22;8484;50.904;9.192;2023-06-14T05:10:14;16.20;91.90
16732;DHT22;8484;50.904;9.192;2023-06-14T05:12:41;16.20;92.00
16732;DHT22;8484;50.904;9.192;2023-06-14T05:15:09;16.20;92.50
16732;DHT22;8484;50.904;9.192;2023-06-14T05:17:36;16.40;92.30
16732;DHT22;8484;50.904;9.192;2023-06-14T05:20:06;16.50;92.20
16732;DHT22;8484;50.904;9.192;2023-06-14T05:22:35;16.50;92.50
16732;DHT22;8484;50.904;9.192;2023-06-14T05:25:07;16.70;92.70
16732;DHT22;8484;50.904;9.192;2023-06-14T05:27:37;16.70;92.10
16732;DHT22;8484;50.904;9.192;2023-06-14T05:30:08;16.70;91.80
16732;DHT22;8484;50.904;9.192;2023-06-14T05:32:35;16.70;92.20
16732;DHT22;8484;50.904;9.192;2023-06-14T05:35:02;16.70;92.70
16732;DHT22;8484;50.904;9.192;2023-06-14T05:37:29;17.00;91.90
16732;DHT22;8484;50.904;9.192;2023-06-14T05:39:57;16.90;91.60
16732;DHT22;8484;50.904;9.192;2023-06-14T05:42:25;16.90;92.00
16732;DHT22;8484;50.904;9.192;2023-06-14T05:44:52;16.90;91.80
16732;DHT22;8484;50.904;9.192;2023-06-14T05:47:19;17.10;91.80
16732;DHT22;8484;50.904;9.192;2023-06-14T05:49:45;17.10;91.30
16732;DHT22;8484;50.904;9.192;2023-06-14T05:52:13;17.10;91.30
16732;DHT22;8484;50.904;9.192;2023-06-14T05:54:40;17.20;92.00
16732;DHT22;8484;50.904;9.192;2023-06-14T05:57:07;17.30;92.30
16732;DHT22;8484;50.904;9.192;2023-06-14T05:59:35;17.20;92.60
16732;DHT22;8484;50.904;9.192;2023-06-14T06:02:02;17.40;92.40
16732;DHT22;8484;50.904;9.192;2023-06-14T06:04:28;17.40;92.50
16732;DHT22;8484;50.904;9.192;2023-06-14T06:06:56;17.40;92.30
16732;DHT22;8484;50.904;9.192;2023-06-14T06:09:23;17.50;91.80
16732;DHT22;8484;50.904;9.192;2023-06-14T06:11:52;17.70;91.70
16732;DHT22;8484;50.904;9.192;2023-06-14T06:14:19;17.60;92.00
16732;DHT22;8484;50.904;9.192;2023-06-14T06:16:47;17.70;91.90
16732;DHT22;8484;50.904;9.192;2023-06-14T06:19:14;17.80;91.70
16732;DHT22;8484;50.904;9.192;2023-06-14T06:21:41;18.00;91.40
16732;DHT22;8484;50.904;9.192;2023-06-14T06:24:08;18.10;91.20
16732;DHT22;8484;50.904;9.192;2023-06-14T06:26:35;18.20;90.50
16732;DHT22;8484;50.904;9.192;2023-06-14T06:29:02;18.40;90.30
16732;DHT22;8484;50.904;9.192;2023-06-14T06:31:29;18.30;90.30
16732;DHT22;8484;50.904;9.192;2023-06-14T06:33:57;18.20;90.70
16732;DHT22;8484;50.904;9.192;2023-06-14T06:36:24;18.20;90.30
16732;DHT22;8484;50.904;9.192;2023-06-14T06:38:51;18.40;90.30
16732;DHT22;8484;50.904;9.192;2023-06-14T06:41:18;18.50;90.40
16732;DHT22;8484;50.904;9.192;2023-06-14T06:43:45;18.60;90.80
16732;DHT22;8484;50.904;9.192;2023-06-14T06:46:13;18.40;90.10
16732;DHT22;8484;50.904;9.192;2023-06-14T06:48:40;18.40;91.10
16732;DHT22;8484;50.904;9.192;2023-06-14T06:51:11;18.80;90.20
16732;DHT22;8484;50.904;9.192;2023-06-14T06:53:38;18.50;90.10
16732;DHT22;8484;50.904;9.192;2023-06-14T06:56:05;18.50;90.40
16732;DHT22;8484;50.904;9.192;2023-06-14T06:58:32;18.50;90.30
16732;DHT22;8484;50.904;9.192;2023-06-14T07:00:59;18.50;90.80
16732;DHT22;8484;50.904;9.192;2023-06-14T07:03:26;18.70;90.70
16732;DHT22;8484;50.904;9.192;2023-06-14T07:05:53;19.00;90.10
16732;DHT22;8484;50.904;9.192;2023-06-14T07:08:21;19.10;89.80
16732;DHT22;8484;50.904;9.192;2023-06-14T07:10:49;19.10;90.00
16732;DHT22;8484;50.904;9.192;2023-06-14T07:13:20;19.20;87.90
16732;DHT22;8484;50.904;9.192;2023-06-14T07:15:48;19.40;87.50
16732;DHT22;8484;50.904;9.192;2023-06-14T07:18:15;19.40;87.40
16732;DHT22;8484;50.904;9.192;2023-06-14T07:20:42;19.20;88.10
16732;DHT22;8484;50.904;9.192;2023-06-14T07:23:09;18.80;88.20
16732;DHT22;8484;50.904;9.192;2023-06-14T07:25:38;18.60;90.00
16732;DHT22;8484;50.904;9.192;2023-06-14T07:28:05;18.70;89.90
16732;DHT22;8484;50.904;9.192;2023-06-14T07:30:32;19.20;88.70
16732;DHT22;8484;50.904;9.192;2023-06-14T07:32:59;19.10;88.10
16732;DHT22;8484;50.904;9.192;2023-06-14T07:35:26;19.30;90.20
16732;DHT22;8484;50.904;9.192;2023-06-14T07:37:53;19.40;86.90
16732;DHT22;8484;50.904;9.192;2023-06-14T07:40:20;19.00;87.60
16732;DHT22;8484;50.904;9.192;2023-06-14T07:42:49;19.30;87.50
16732;DHT22;8484;50.904;9.192;2023-06-14T07:45:16;19.80;87.60
16732;DHT22;8484;50.904;9.192;2023-06-14T07:47:43;19.80;85.30
16732;DHT22;8484;50.904;9.192;2023-06-14T07:50:10;20.30;84.70
16732;DHT22;8484;50.904;9.192;2023-06-14T07:52:38;20.20;84.00
16732;DHT22;8484;50.904;9.192;2023-06-14T07:55:05;19.80;83.50
16732;DHT22;8484;50.904;9.192;2023-06-14T07:57:33;19.70;84.20
16732;DHT22;8484;50.904;9.192;2023-06-14T08:00:02;19.50;83.20
16732;DHT22;8484;50.904;9.192;2023-06-14T08:02:31;19.10;84.10
16732;DHT22;8484;50.904;9.192;2023-06-14T08:04:58;19.60;86.80
16732;DHT22;8484;50.904;9.192;2023-06-14T08:07:26;20.40;83.70
16732;DHT22;8484;50.904;9.192;2023-06-14T08:09:56;20.50;83.40
16732;DHT22;8484;50.904;9.192;2023-06-14T08:12:23;21.10;82.60
16732;DHT22;8484;50.904;9.192;2023-06-14T08:14:50;21.00;81.60
16732;DHT22;8484;50.904;9.192;2023-06-14T08:17:19;21.20;80.20
16732;DHT22;8484;50.904;9.192;2023-06-14T08:19:45;20.70;81.10
16732;DHT22;8484;50.904;9.192;2023-06-14T08:22:12;20.50;82.80
16732;DHT22;8484;50.904;9.192;2023-06-14T08:24:39;21.10;82.30
16732;DHT22;8484;50.904;9.192;2023-06-14T08:27:08;21.40;81.50
16732;DHT22;8484;50.904;9.192;2023-06-14T08:29:38;21.30;81.20
16732;DHT22;8484;50.904;9.192;2023-06-14T08:32:07;20.30;80.80
16732;DHT22;8484;50.904;9.192;2023-06-14T08:34:35;20.30;82.80
16732;DHT22;8484;50.904;9.192;2023-06-14T08:37:03;21.10;81.90
16732;DHT22;8484;50.904;9.192;2023-06-14T08:39:30;21.50;80.70
16732;DHT22;8484;50.904;9.192;2023-06-14T08:41:58;21.80;78.20
16732;DHT22;8484;50.904;9.192;2023-06-14T08:44:30;21.30;78.20
16732;DHT22;8484;50.904;9.192;2023-06-14T08:46:59;21.60;79.30
16732;DHT22;8484;50.904;9.192;2023-06-14T08:49:26;20.90;77.80
16732;DHT22;8484;50.904;9.192;2023-06-14T08:52:00;21.30;78.20
16732;DHT22;8484;50.904;9.192;2023-06-14T08:54:28;21.10;78.20
16732;DHT22;8484;50.904;9.192;2023-06-14T08:56:57;21.40;79.70
16732;DHT22;8484;50.904;9.192;2023-06-14T08:59:32;21.30;80.10
16732;DHT22;8484;50.904;9.192;2023-06-14T09:02:06;21.50;79.60
16732;DHT22;8484;50.904;9.192;2023-06-14T09:04:44;22.20;77.60
16732;DHT22;8484;50.904;9.192;2023-06-14T09:07:12;22.40;75.90
16732;DHT22;8484;50.904;9.192;2023-06-14T09:09:39;21.50;78.20
16732;DHT22;8484;50.904;9.192;2023-06-14T09:12:08;21.70;78.80
16732;DHT22;8484;50.904;9.192;2023-06-14T09:14:37;22.00;77.90
16732;DHT22;8484;50.904;9.192;2023-06-14T09:17:06;21.50;77.40
16732;DHT22;8484;50.904;9.192;2023-06-14T09:19:33;21.60;79.70
16732;DHT22;8484;50.904;9.192;2023-06-14T09:22:01;22.00;76.20
16732;DHT22;8484;50.904;9.192;2023-06-14T09:24:30;21.90;78.00
16732;DHT22;8484;50.904;9.192;2023-06-14T09:26:59;21.20;76.60
16732;DHT22;8484;50.904;9.192;2023-06-14T09:29:27;21.30;77.90
16732;DHT22;8484;50.904;9.192;2023-06-14T09:31:54;21.40;76.80
16732;DHT22;8484;50.904;9.192;2023-06-14T09:34:21;20.90;81.30
16732;DHT22;8484;50.904;9.192;2023-06-14T09:36:49;20.50;79.50
16732;DHT22;8484;50.904;9.192;2023-06-14T09:39:17;21.60;79.20
16732;DHT22;8484;50.904;9.192;2023-06-14T09:41:46;23.10;77.40
16732;DHT22;8484;50.904;9.192;2023-06-14T09:44:13;22.70;76.80
16732;DHT22;8484;50.904;9.192;2023-06-14T09:46:40;21.80;77.30
16732;DHT22;8484;50.904;9.192;2023-06-14T09:49:07;21.40;79.70
16732;DHT22;8484;50.904;9.192;2023-06-14T09:51:36;22.70;77.50
16732;DHT22;8484;50.904;9.192;2023-06-14T09:54:07;23.30;74.30
16732;DHT22;8484;50.904;9.192;2023-06-14T09:56:37;23.20;73.10
16732;DHT22;8484;50.904;9.192;2023-06-14T09:59:06;22.30;74.50
16732;DHT22;8484;50.904;9.192;2023-06-14T10:01:41;21.20;76.80
16732;DHT22;8484;50.904;9.192;2023-06-14T10:04:10;22.40;75.70
16732;DHT22;8484;50.904;9.192;2023-06-14T10:06:40;22.10;74.40
16732;DHT22;8484;50.904;9.192;2023-06-14T10:09:08;20.80;76.10
16732;DHT22;8484;50.904;9.192;2023-06-14T10:11:36;20.80;77.40
16732;DHT22;8484;50.904;9.192;2023-06-14T10:14:06;20.90;77.20
16732;DHT22;8484;50.904;9.192;2023-06-14T10:16:37;22.00;74.00
16732;DHT22;8484;50.904;9.192;2023-06-14T10:19:11;22.00;74.20
16732;DHT22;8484;50.904;9.192;2023-06-14T10:21:45;22.30;73.50
16732;DHT22;8484;50.904;9.192;2023-06-14T10:24:16;21.90;75.50
16732;DHT22;8484;50.904;9.192;2023-06-14T10:26:51;22.40;73.60
16732;DHT22;8484;50.904;9.192;2023-06-14T10:29:19;22.30;75.90
16732;DHT22;8484;50.904;9.192;2023-06-14T10:31:47;22.10;75.00
16732;DHT22;8484;50.904;9.192;2023-06-14T10:34:23;22.90;73.40
16732;DHT22;8484;50.904;9.192;2023-06-14T10:37:04;23.30;74.30
16732;DHT22;8484;50.904;9.192;2023-06-14T10:39:33;23.90;71.60
16732;DHT22;8484;50.904;9.192;2023-06-14T10:42:03;23.80;70.50
16732;DHT22;8484;50.904;9.192;2023-06-14T10:44:50;23.80;71.10
16732;DHT22;8484;50.904;9.192;2023-06-14T10:47:25;23.90;68.30
16732;DHT22;8484;50.904;9.192;2023-06-14T10:49:53;24.20;69.10
16732;DHT22;8484;50.904;9.192;2023-06-14T10:52:25;24.60;69.90
16732;DHT22;8484;50.904;9.192;2023-06-14T10:55:14;25.30;68.90
16732;DHT22;8484;50.904;9.192;2023-06-14T10:57:44;24.40;68.10
16732;DHT22;8484;50.904;9.192;2023-06-14T11:00:15;23.20;70.00
16732;DHT22;8484;50.904;9.192;2023-06-14T11:05:51;23.10;70.20
16732;DHT22;8484;50.904;9.192;2023-06-14T11:11:38;23.00;70.70
16732;DHT22;8484;50.904;9.192;2023-06-14T11:14:12;22.80;73.40
16732;DHT22;8484;50.904;9.192;2023-06-14T11:16:41;23.90;67.90
16732;DHT22;8484;50.904;9.192;2023-06-14T11:19:07;23.10;68.90
16732;DHT22;8484;50.904;9.192;2023-06-14T11:21:39;23.50;69.00
16732;DHT22;8484;50.904;9.192;2023-06-14T11:24:10;23.30;66.90
16732;DHT22;8484;50.904;9.192;2023-06-14T11:26:37;23.90;66.00
16732;DHT22;8484;50.904;9.192;2023-06-14T11:29:05;23.80;71.30
16732;DHT22;8484;50.904;9.192;2023-06-14T11:31:31;25.20;70.90
16732;DHT22;8484;50.904;9.192;2023-06-14T11:34:00;26.30;67.70
16732;DHT22;8484;50.904;9.192;2023-06-14T11:36:28;24.10;69.10
16732;DHT22;8484;50.904;9.192;2023-06-14T11:38:58;24.00;69.50
16732;DHT22;8484;50.904;9.192;2023-06-14T11:41:32;23.70;67.70
16732;DHT22;8484;50.904;9.192;2023-06-14T11:44:00;23.10;69.80
16732;DHT22;8484;50.904;9.192;2023-06-14T11:46:28;23.80;69.20
16732;DHT22;8484;50.904;9.192;2023-06-14T11:48:55;24.70;67.40
16732;DHT22;8484;50.904;9.192;2023-06-14T11:51:23;24.80;66.40
16732;DHT22;8484;50.904;9.192;2023-06-14T11:53:50;25.50;65.70
16732;DHT22;8484;50.904;9.192;2023-06-14T11:56:18;25.80;64.60
16732;DHT22;8484;50.904;9.192;2023-06-14T11:58:46;24.20;65.00
16732;DHT22;8484;50.904;9.192;2023-06-14T12:01:16;23.10;67.60
16732;DHT22;8484;50.904;9.192;2023-06-14T12:03:47;23.80;68.20
16732;DHT22;8484;50.904;9.192;2023-06-14T12:06:15;24.20;67.30
16732;DHT22;8484;50.904;9.192;2023-06-14T12:08:44;24.20;67.30
16732;DHT22;8484;50.904;9.192;2023-06-14T12:11:15;23.60;69.00
16732;DHT22;8484;50.904;9.192;2023-06-14T12:13:43;24.60;69.10
16732;DHT22;8484;50.904;9.192;2023-06-14T12:16:10;25.50;66.10
16732;DHT22;8484;50.904;9.192;2023-06-14T12:18:39;25.00;66.40
16732;DHT22;8484;50.904;9.192;2023-06-14T12:21:07;25.10;67.20
16732;DHT22;8484;50.904;9.192;2023-06-14T12:23:45;25.70;66.00
16732;DHT22;8484;50.904;9.192;2023-06-14T12:26:14;26.10;64.90
16732;DHT22;8484;50.904;9.192;2023-06-14T12:28:45;25.20;66.40
16732;DHT22;8484;50.904;9.192;2023-06-14T12:31:13;24.80;65.60
16732;DHT22;8484;50.904;9.192;2023-06-14T12:33:41;25.10;64.40
16732;DHT22;8484;50.904;9.192;2023-06-14T12:36:11;25.40;65.00
16732;DHT22;8484;50.904;9.192;2023-06-14T12:38:38;26.00;66.20
16732;DHT22;8484;50.904;9.192;2023-06-14T12:41:06;25.40;64.90
16732;DHT22;8484;50.904;9.192;2023-06-14T12:43:33;25.10;65.10
16732;DHT22;8484;50.904;9.192;2023-06-14T12:46:01;24.30;67.30
16732;DHT22;8484;50.904;9.192;2023-06-14T12:48:28;24.30;68.40
16732;DHT22;8484;50.904;9.192;2023-06-14T12:50:56;24.40;66.10
16732;DHT22;8484;50.904;9.192;2023-06-14T12:53:25;24.80;66.80
16732;DHT22;8484;50.904;9.192;2023-06-14T12:55:59;25.60;65.60
16732;DHT22;8484;50.904;9.192;2023-06-14T12:58:30;24.40;65.90
16732;DHT22;8484;50.904;9.192;2023-06-14T13:00:58;23.80;67.40
16732;DHT22;8484;50.904;9.192;2023-06-14T13:03:27;23.30;67.70
16732;DHT22;8484;50.904;9.192;2023-06-14T13:05:59;23.70;66.10
16732;DHT22;8484;50.904;9.192;2023-06-14T13:08:26;24.60;64.70
16732;DHT22;8484;50.904;9.192;2023-06-14T13:10:53;24.90;66.20
16732;DHT22;8484;50.904;9.192;2023-06-14T13:13:20;25.90;65.60
16732;DHT22;8484;50.904;9.192;2023-06-14T13:15:49;26.10;63.40
16732;DHT22;8484;50.904;9.192;2023-06-14T13:18:16;25.30;64.60
16732;DHT22;8484;50.904;9.192;2023-06-14T13:20:44;25.10;64.40
16732;DHT22;8484;50.904;9.192;2023-06-14T13:23:12;25.00;65.40
16732;DHT22;8484;50.904;9.192;2023-06-14T13:25:39;24.90;63.20
16732;DHT22;8484;50.904;9.192;2023-06-14T13:28:06;25.10;64.20
16732;DHT22;8484;50.904;9.192;2023-06-14T13:30:34;25.40;64.10
16732;DHT22;8484;50.904;9.192;2023-06-14T13:33:04;25.90;64.10
16732;DHT22;8484;50.904;9.192;2023-06-14T13:35:31;26.00;63.00
16732;DHT22;8484;50.904;9.192;2023-06-14T13:38:03;24.60;62.60
16732;DHT22;8484;50.904;9.192;2023-06-14T13:40:30;23.50;65.90
16732;DHT22;8484;50.904;9.192;2023-06-14T13:42:59;23.40;65.20
16732;DHT22;8484;50.904;9.192;2023-06-14T13:45:26;23.60;65.40
16732;DHT22;8484;50.904;9.192;2023-06-14T13:47:53;24.70;65.10
16732;DHT22;8484;50.904;9.192;2023-06-14T13:50:21;24.70;60.90
16732;DHT22;8484;50.904;9.192;2023-06-14T13:52:48;23.90;64.50
16732;DHT22;8484;50.904;9.192;2023-06-14T13:55:15;23.40;66.00
16732;DHT22;8484;50.904;9.192;2023-06-14T13:57:43;23.50;66.60
16732;DHT22;8484;50.904;9.192;2023-06-14T14:00:11;24.00;65.20
16732;DHT22;8484;50.904;9.192;2023-06-14T14:02:42;25.10;64.90
16732;DHT22;8484;50.904;9.192;2023-06-14T14:05:09;25.00;63.70
16732;DHT22;8484;50.904;9.192;2023-06-14T14:07:37;23.60;64.10
16732;DHT22;8484;50.904;9.192;2023-06-14T14:10:06;23.00;64.50
16732;DHT22;8484;50.904;9.192;2023-06-14T14:12:34;23.20;65.30
16732;DHT22;8484;50.904;9.192;2023-06-14T14:15:05;23.90;63.60
16732;DHT22;8484;50.904;9.192;2023-06-14T14:17:33;24.50;61.30
16732;DHT22;8484;50.904;9.192;2023-06-14T14:20:00;24.00;62.70
16732;DHT22;8484;50.904;9.192;2023-06-14T14:22:27;24.30;61.90
16732;DHT22;8484;50.904;9.192;2023-06-14T14:24:55;23.60;63.50
16732;DHT22;8484;50.904;9.192;2023-06-14T14:27:22;23.90;63.30
16732;DHT22;8484;50.904;9.192;2023-06-14T14:29:49;24.20;62.40
16732;DHT22;8484;50.904;9.192;2023-06-14T14:32:16;24.40;63.80
16732;DHT22;8484;50.904;9.192;2023-06-14T14:34:43;24.20;64.10
16732;DHT22;8484;50.904;9.192;2023-06-14T14:37:10;23.70;64.10
16732;DHT22;8484;50.904;9.192;2023-06-14T14:39:38;24.60;65.00
16732;DHT22;8484;50.904;9.192;2023-06-14T14:42:07;25.10;63.10
16732;DHT22;8484;50.904;9.192;2023-06-14T14:44:34;25.00;61.90
16732;DHT22;8484;50.904;9.192;2023-06-14T14:47:03;24.30;63.60
16732;DHT22;8484;50.904;9.192;2023-06-14T14:49:31;24.70;62.60
16732;DHT22;8484;50.904;9.192;2023-06-14T14:52:00;24.60;63.90
16732;DHT22;8484;50.904;9.192;2023-06-14T14:54:30;23.70;64.40
16732;DHT22;8484;50.904;9.192;2023-06-14T14:56:57;23.20;65.10
16732;DHT22;8484;50.904;9.192;2023-06-14T14:59:26;22.90;66.60
16732;DHT22;8484;50.904;9.192;2023-06-14T15:01:53;23.70;65.10
16732;DHT22;8484;50.904;9.192;2023-06-14T15:04:20;23.30;65.00
16732;DHT22;8484;50.904;9.192;2023-06-14T15:06:47;24.10;65.50
16732;DHT22;8484;50.904;9.192;2023-06-14T15:09:14;24.60;63.80
16732;DHT22;8484;50.904;9.192;2023-06-14T15:11:41;23.50;66.20
16732;DHT22;8484;50.904;9.192;2023-06-14T15:14:10;22.90;67.50
16732;DHT22;8484;50.904;9.192;2023-06-14T15:16:38;22.70;68.60
16732;DHT22;8484;50.904;9.192;2023-06-14T15:19:05;22.40;68.00
16732;DHT22;8484;50.904;9.192;2023-06-14T15:21:32;22.20;67.30
16732;DHT22;8484;50.904;9.192;2023-06-14T15:23:59;22.70;66.30
16732;DHT22;8484;50.904;9.192;2023-06-14T15:26:26;23.20;64.70
16732;DHT22;8484;50.904;9.192;2023-06-14T15:28:54;23.50;65.80
16732;DHT22;8484;50.904;9.192;2023-06-14T15:31:21;23.40;65.00
16732;DHT22;8484;50.904;9.192;2023-06-14T15:33:55;23.30;66.40
16732;DHT22;8484;50.904;9.192;2023-06-14T15:36:21;22.80;67.90
16732;DHT22;8484;50.904;9.192;2023-06-14T15:38:48;22.70;68.60
16732;DHT22;8484;50.904;9.192;2023-06-14T15:41:15;23.20;68.00
16732;DHT22;8484;50.904;9.192;2023-06-14T15:43:42;23.80;67.80
16732;DHT22;8484;50.904;9.192;2023-06-14T15:46:09;24.00;66.00
16732;DHT22;8484;50.904;9.192;2023-06-14T15:48:43;23.70;65.90
16732;DHT22;8484;50.904;9.192;2023-06-14T15:51:12;22.90;68.40
16732;DHT22;8484;50.904;9.192;2023-06-14T15:53:39;22.60;69.10
16732;DHT22;8484;50.904;9.192;2023-06-14T15:56:06;22.30;69.40
16732;DHT22;8484;50.904;9.192;2023-06-14T15:58:32;22.30;69.90